Time;durP1;ratioP1;P1;durP2;ratioP2;P2;SDS_P1;SDS_P2;PMS_P1;PMS_P2;Temp;Humidity;BMP_temperature;BMP_pressure;BME280_temperature;BME280_humidity;BME280_pressure;Samples;Min_cycle;Max_cycle;Signal;HPM_P1;HPM_P2
2021/12/13 00:00:49;;;;;;;;;23.25;22.25;;;;;;;;4944047;28;45293;-69
2021/12/13 00:03:24;;;;;;;;;23.75;19.00;;;;;;;;4952028;28;47541;-69
2021/12/13 00:06:09;;;;;;;;;21.50;17.75;;;;;;;;4953756;28;45922;-69
2021/12/13 00:08:35;;;;;;;;;28.00;21.25;;;;;;;;4953885;28;45411;-69
2021/12/13 00:11:09;;;;;;;;;30.75;22.25;;;;;;;;4955940;28;45417;-69
2021/12/13 00:13:46;;;;;;;;;39.00;28.75;;;;;;;;4953326;28;46610;-69
2021/12/13 00:16:14;;;;;;;;;31.50;23.50;;;;;;;;4955170;28;45859;-69
2021/12/13 00:18:44;;;;;;;;;34.25;26.00;;;;;;;;4957788;28;45298;-70
2021/12/13 00:21:13;;;;;;;;;35.00;27.75;;;;;;;;4957129;28;45492;-69
2021/12/13 00:23:51;;;;;;;;;28.00;25.25;;;;;;;;4959751;28;46985;-69
2021/12/13 00:26:25;;;;;;;;;29.75;26.50;;;;;;;;4957093;28;45476;-69
2021/12/13 00:28:50;;;;;;;;;29.75;21.25;;;;;;;;4957300;28;45491;-70
2021/12/13 00:31:34;;;;;;;;;23.50;20.25;;;;;;;;4955345;28;45402;-69
2021/12/13 00:34:08;;;;;;;;;27.75;17.75;;;;;;;;4957142;28;46625;-70
2021/12/13 00:36:33;;;;;;;;;21.25;18.00;;;;;;;;4958382;28;46497;-69
2021/12/13 00:39:05;;;;;;;;;23.33;21.00;;;;;;;;4958600;28;45436;-69
2021/12/13 00:41:31;;;;;;;;;25.75;18.75;;;;;;;;4957021;28;45356;-69
2021/12/13 00:44:02;;;;;;;;;23.00;20.00;;;;;;;;4952686;28;46225;-69
2021/12/13 00:46:28;;;;;;;;;23.00;20.25;;;;;;;;4961240;28;45447;-69
2021/12/13 00:48:54;;;;;;;;;31.25;19.50;;;;;;;;4963905;28;45325;-69
2021/12/13 00:51:22;;;;;;;;;27.75;19.25;;;;;;;;4957823;28;45447;-69
2021/12/13 00:53:49;;;;;;;;;29.75;22.25;;;;;;;;4955448;28;46464;-69
2021/12/13 00:56:33;;;;;;;;;26.50;19.75;;;;;;;;4953406;28;45551;-69
2021/12/13 00:58:59;;;;;;;;;41.25;28.75;;;;;;;;4949126;28;45353;-69
2021/12/13 01:01:24;;;;;;;;;35.25;26.50;;;;;;;;4953540;28;45699;-69
2021/12/13 01:03:50;;;;;;;;;39.00;29.00;;;;;;;;4963997;28;46277;-69
2021/12/13 01:06:36;;;;;;;;;24.50;20.50;;;;;;;;4954504;28;45375;-70
2021/12/13 01:09:20;;;;;;;;;33.75;22.50;;;;;;;;4956913;28;45767;-69
2021/12/13 01:11:49;;;;;;;;;27.00;19.75;;;;;;;;4949717;28;45278;-69
2021/12/13 01:14:17;;;;;;;;;21.50;13.00;;;;;;;;4952694;28;45373;-70
2021/12/13 01:17:02;;;;;;;;;26.00;18.75;;;;;;;;4960185;28;45432;-69
2021/12/13 01:19:32;;;;;;;;;28.25;22.50;;;;;;;;4958471;28;45521;-69
2021/12/13 01:22:13;;;;;;;;;13.50;13.50;;;;;;;;4957139;28;45532;-70
2021/12/13 01:27:28;;;;;;;;;28.75;19.75;;;;;;;;4958592;28;45313;-69
2021/12/13 01:29:54;;;;;;;;;23.00;19.25;;;;;;;;4957392;28;45543;-69
2021/12/13 01:32:19;;;;;;;;;21.00;20.75;;;;;;;;4956734;28;45570;-69
2021/12/13 01:34:45;;;;;;;;;26.00;21.00;;;;;;;;4964768;28;46502;-69
2021/12/13 01:37:16;;;;;;;;;26.75;19.75;;;;;;;;4959837;28;45683;-69
2021/12/13 01:39:47;;;;;;;;;25.25;19.75;;;;;;;;4957466;28;45523;-69
2021/12/13 01:42:16;;;;;;;;;21.25;18.50;;;;;;;;4957954;28;45574;-69
2021/12/13 01:44:48;;;;;;;;;23.25;17.50;;;;;;;;4956673;28;45499;-69
2021/12/13 01:47:19;;;;;;;;;23.00;17.50;;;;;;;;4951586;28;45844;-69
2021/12/13 01:49:51;;;;;;;;;21.00;16.25;;;;;;;;4952389;28;45534;-69
2021/12/13 01:52:21;;;;;;;;;22.50;19.25;;;;;;;;4956289;28;45766;-69
2021/12/13 01:54:46;;;;;;;;;23.75;16.75;;;;;;;;4952740;28;46432;-69
2021/12/13 01:59:49;;;;;;;;;25.25;17.75;;;;;;;;4952412;28;45421;-69
2021/12/13 02:02:17;;;;;;;;;21.50;20.75;;;;;;;;4952624;28;45903;-69
2021/12/13 02:04:44;;;;;;;;;24.50;17.25;;;;;;;;4959723;28;45401;-69
2021/12/13 02:07:10;;;;;;;;;27.75;21.00;;;;;;;;4963969;28;45969;-70
2021/12/13 02:09:38;;;;;;;;;20.50;14.75;;;;;;;;4954973;28;45488;-70
2021/12/13 02:12:05;;;;;;;;;23.25;19.00;;;;;;;;4955847;28;45369;-70
2021/12/13 02:14:33;;;;;;;;;19.75;16.00;;;;;;;;4955602;28;47097;-69
2021/12/13 02:17:14;;;;;;;;;19.75;14.75;;;;;;;;4958388;28;45796;-70
2021/12/13 02:19:53;;;;;;;;;25.50;15.50;;;;;;;;4956976;28;45496;-70
2021/12/13 02:22:33;;;;;;;;;18.00;15.75;;;;;;;;4955645;28;45394;-69
2021/12/13 02:25:05;;;;;;;;;30.25;18.50;;;;;;;;4942531;28;46549;-69
2021/12/13 02:27:32;;;;;;;;;28.50;17.50;;;;;;;;4955442;28;47912;-70
2021/12/13 02:30:03;;;;;;;;;20.25;16.25;;;;;;;;4963656;28;45694;-69
2021/12/13 02:32:30;;;;;;;;;21.00;15.25;;;;;;;;4957693;28;45519;-69
2021/12/13 02:34:58;;;;;;;;;23.75;17.00;;;;;;;;4973944;28;47552;-70
2021/12/13 02:37:24;;;;;;;;;24.25;16.25;;;;;;;;4956036;28;45740;-70
2021/12/13 02:39:53;;;;;;;;;23.00;16.00;;;;;;;;4954689;28;45512;-69
2021/12/13 02:42:18;;;;;;;;;19.50;16.25;;;;;;;;4961585;28;45290;-69
2021/12/13 02:44:48;;;;;;;;;22.00;18.25;;;;;;;;4955213;28;45499;-69
2021/12/13 02:47:21;;;;;;;;;30.75;20.25;;;;;;;;4957067;28;45853;-70
2021/12/13 02:49:46;;;;;;;;;23.50;20.25;;;;;;;;4951765;28;45476;-70
2021/12/13 02:52:14;;;;;;;;;22.25;17.25;;;;;;;;4957414;28;45400;-69
2021/12/13 02:54:42;;;;;;;;;26.00;14.25;;;;;;;;4955690;28;46667;-69
2021/12/13 02:57:12;;;;;;;;;28.75;19.25;;;;;;;;4953557;28;45456;-69
2021/12/13 02:59:39;;;;;;;;;24.50;16.50;;;;;;;;4951587;28;45536;-69
2021/12/13 03:02:07;;;;;;;;;24.50;15.25;;;;;;;;4955028;28;45507;-69
2021/12/13 03:04:32;;;;;;;;;19.00;13.50;;;;;;;;4953461;28;46492;-70
2021/12/13 03:07:06;;;;;;;;;16.50;15.75;;;;;;;;4955343;28;45513;-69
2021/12/13 03:09:33;;;;;;;;;19.25;16.25;;;;;;;;4955572;28;45535;-69
2021/12/13 03:12:02;;;;;;;;;20.75;15.50;;;;;;;;4952334;28;45341;-70
2021/12/13 03:14:30;;;;;;;;;16.00;11.75;;;;;;;;4955047;28;46959;-69
2021/12/13 03:17:07;;;;;;;;;23.75;16.00;;;;;;;;4952355;28;45913;-69
2021/12/13 03:19:38;;;;;;;;;21.25;15.75;;;;;;;;4952738;28;45467;-69
2021/12/13 03:22:22;;;;;;;;;22.75;17.75;;;;;;;;4954043;28;45441;-70
2021/12/13 03:24:47;;;;;;;;;16.25;15.75;;;;;;;;4955747;28;45475;-69
2021/12/13 03:27:31;;;;;;;;;24.67;17.33;;;;;;;;4953573;28;45406;-69
2021/12/13 03:29:59;;;;;;;;;26.75;17.50;;;;;;;;4953983;28;45528;-69
2021/12/13 03:32:30;;;;;;;;;22.50;18.50;;;;;;;;4955107;28;45381;-69
2021/12/13 03:35:02;;;;;;;;;20.25;16.25;;;;;;;;4953936;28;46624;-70
2021/12/13 03:37:27;;;;;;;;;26.00;16.75;;;;;;;;4953061;28;45776;-69
2021/12/13 03:39:56;;;;;;;;;18.00;16.00;;;;;;;;4953872;28;45367;-70
2021/12/13 03:42:26;;;;;;;;;17.75;15.25;;;;;;;;4961172;28;45384;-69
2021/12/13 03:44:54;;;;;;;;;19.50;15.25;;;;;;;;4961229;28;45580;-69
2021/12/13 03:47:22;;;;;;;;;14.25;14.00;;;;;;;;4959890;28;45851;-69
2021/12/13 03:49:50;;;;;;;;;20.25;15.00;;;;;;;;4951894;28;45458;-69
2021/12/13 03:52:17;;;;;;;;;19.75;15.25;;;;;;;;4953126;28;45540;-69
2021/12/13 03:54:43;;;;;;;;;16.00;15.50;;;;;;;;4951357;28;46393;-69
2021/12/13 03:57:09;;;;;;;;;15.75;13.00;;;;;;;;4961495;28;45688;-70
2021/12/13 03:59:37;;;;;;;;;23.25;16.00;;;;;;;;4951414;28;45434;-69
2021/12/13 04:02:05;;;;;;;;;11.25;10.75;;;;;;;;4955014;28;45582;-69
2021/12/13 04:04:40;;;;;;;;;13.50;10.00;;;;;;;;4950606;28;45770;-69
2021/12/13 04:07:11;;;;;;;;;18.50;13.00;;;;;;;;4947944;28;45792;-69
2021/12/13 04:09:36;;;;;;;;;18.50;13.50;;;;;;;;4955129;28;45420;-69
2021/12/13 04:12:04;;;;;;;;;21.00;14.67;;;;;;;;4951481;28;45400;-69
2021/12/13 04:14:34;;;;;;;;;19.50;10.00;;;;;;;;4950616;28;46397;-70
2021/12/13 04:19:59;;;;;;;;;18.00;13.00;;;;;;;;4948741;28;45456;-69
2021/12/13 04:22:29;;;;;;;;;14.25;10.75;;;;;;;;4956840;28;45653;-69
2021/12/13 04:24:58;;;;;;;;;16.75;14.00;;;;;;;;4953734;28;45464;-69
2021/12/13 04:27:32;;;;;;;;;15.75;11.75;;;;;;;;4952916;28;45883;-69
2021/12/13 04:30:05;;;;;;;;;15.00;11.25;;;;;;;;4964983;28;45499;-69
2021/12/13 04:32:38;;;;;;;;;12.25;11.25;;;;;;;;4954942;28;45467;-70
2021/12/13 04:35:06;;;;;;;;;15.25;13.25;;;;;;;;4954569;28;46808;-69
2021/12/13 04:37:35;;;;;;;;;19.00;11.00;;;;;;;;4954735;28;45886;-70
2021/12/13 04:40:07;;;;;;;;;14.50;12.25;;;;;;;;4952725;28;45428;-69
2021/12/13 04:42:32;;;;;;;;;19.00;11.00;;;;;;;;4953726;28;45309;-69
2021/12/13 04:45:01;;;;;;;;;17.00;11.67;;;;;;;;4953720;28;45427;-70
2021/12/13 04:47:31;;;;;;;;;12.75;10.50;;;;;;;;4954294;28;45852;-69
2021/12/13 04:50:05;;;;;;;;;18.25;13.00;;;;;;;;4953129;28;45435;-69
2021/12/13 04:52:31;;;;;;;;;15.75;9.75;;;;;;;;4955148;28;45752;-69
2021/12/13 04:54:56;;;;;;;;;15.50;10.75;;;;;;;;4958727;28;46799;-69
2021/12/13 04:57:22;;;;;;;;;19.25;16.25;;;;;;;;4958137;28;45329;-69
2021/12/13 04:59:50;;;;;;;;;15.00;14.50;;;;;;;;4958048;28;45485;-69
2021/12/13 05:02:16;;;;;;;;;13.25;12.75;;;;;;;;4956007;28;45497;-70
2021/12/13 05:04:41;;;;;;;;;16.00;14.00;;;;;;;;4956506;28;45401;-70
2021/12/13 05:07:06;;;;;;;;;20.50;15.75;;;;;;;;4956426;28;45354;-69
2021/12/13 05:09:33;;;;;;;;;22.00;18.25;;;;;;;;4957280;28;45519;-70
2021/12/13 05:12:01;;;;;;;;;18.75;16.50;;;;;;;;4957087;28;45444;-69
2021/12/13 05:14:33;;;;;;;;;20.25;16.00;;;;;;;;4960412;28;45627;-70
2021/12/13 05:17:02;;;;;;;;;5.50;2.00;;;;;;;;4951205;28;45372;-69
2021/12/13 05:19:34;;;;;;;;;19.75;19.00;;;;;;;;4966117;28;45475;-69
2021/12/13 05:22:01;;;;;;;;;26.75;19.50;;;;;;;;4955463;28;45461;-69
2021/12/13 05:24:28;;;;;;;;;18.50;16.00;;;;;;;;4954894;28;46427;-70
2021/12/13 05:26:56;;;;;;;;;19.00;15.75;;;;;;;;4957598;28;45390;-70
2021/12/13 05:29:27;;;;;;;;;21.25;15.00;;;;;;;;4956473;28;45950;-70
2021/12/13 05:31:55;;;;;;;;;22.50;18.50;;;;;;;;4958380;28;45761;-69
2021/12/13 05:34:28;;;;;;;;;19.00;15.50;;;;;;;;4957657;28;45893;-69
2021/12/13 05:36:55;;;;;;;;;22.50;18.00;;;;;;;;4958117;28;45845;-69
2021/12/13 05:39:21;;;;;;;;;19.75;14.25;;;;;;;;4957564;28;45390;-70
2021/12/13 05:41:55;;;;;;;;;16.75;11.25;;;;;;;;4956488;28;45488;-69
2021/12/13 05:44:28;;;;;;;;;17.50;12.50;;;;;;;;4957663;28;45483;-69
2021/12/13 05:46:54;;;;;;;;;20.50;16.00;;;;;;;;4962392;28;45429;-70
2021/12/13 05:49:24;;;;;;;;;17.50;15.00;;;;;;;;4959194;28;45510;-70
2021/12/13 05:51:52;;;;;;;;;15.25;12.50;;;;;;;;4964063;28;47070;-71
2021/12/13 05:54:24;;;;;;;;;15.75;14.25;;;;;;;;4956492;28;45418;-68
2021/12/13 05:56:52;;;;;;;;;16.50;14.25;;;;;;;;4955470;28;45557;-69
2021/12/13 05:59:23;;;;;;;;;17.75;15.50;;;;;;;;4956312;28;45408;-69
2021/12/13 06:01:57;;;;;;;;;20.75;15.75;;;;;;;;4950522;28;45437;-69
2021/12/13 06:04:32;;;;;;;;;21.25;17.00;;;;;;;;4955554;28;48025;-68
2021/12/13 06:06:57;;;;;;;;;15.25;13.50;;;;;;;;4962474;28;45313;-69
2021/12/13 06:09:40;;;;;;;;;15.00;14.25;;;;;;;;4966479;28;45453;-69
2021/12/13 06:12:07;;;;;;;;;20.75;17.00;;;;;;;;4962381;28;45541;-69
2021/12/13 06:14:33;;;;;;;;;22.50;16.25;;;;;;;;4955585;28;46322;-69
2021/12/13 06:17:04;;;;;;;;;23.50;15.25;;;;;;;;4962105;28;45601;-69
2021/12/13 06:19:32;;;;;;;;;15.50;14.75;;;;;;;;4957851;28;45486;-70
2021/12/13 06:22:03;;;;;;;;;22.25;17.00;;;;;;;;4969741;28;45369;-70
2021/12/13 06:24:40;;;;;;;;;25.00;16.50;;;;;;;;4963726;28;45620;-70
2021/12/13 06:27:25;;;;;;;;;23.25;18.00;;;;;;;;4962009;28;45464;-69
2021/12/13 06:29:56;;;;;;;;;16.75;15.75;;;;;;;;4958766;28;45581;-69
2021/12/13 06:32:26;;;;;;;;;16.50;14.25;;;;;;;;4956202;28;45511;-69
2021/12/13 06:34:52;;;;;;;;;18.00;15.75;;;;;;;;4955250;28;45531;-69
2021/12/13 06:37:30;;;;;;;;;19.75;15.50;;;;;;;;4952239;28;45365;-70
2021/12/13 06:40:16;;;;;;;;;26.75;18.50;;;;;;;;4941270;28;45469;-69
2021/12/13 06:42:42;;;;;;;;;17.75;15.00;;;;;;;;4963044;28;45423;-71
2021/12/13 06:45:21;;;;;;;;;19.67;14.00;;;;;;;;4954892;28;46118;-70
2021/12/13 06:47:48;;;;;;;;;20.75;17.25;;;;;;;;4957056;28;46125;-70
2021/12/13 06:50:18;;;;;;;;;22.75;17.75;;;;;;;;4959311;28;45491;-69
2021/12/13 06:52:44;;;;;;;;;26.75;18.75;;;;;;;;4955077;28;45630;-69
2021/12/13 06:55:12;;;;;;;;;26.50;19.50;;;;;;;;4955166;28;46108;-70
2021/12/13 06:57:39;;;;;;;;;23.25;20.00;;;;;;;;4955849;28;45853;-70
2021/12/13 07:00:14;;;;;;;;;21.25;17.50;;;;;;;;4951322;28;45314;-69
2021/12/13 07:02:39;;;;;;;;;24.00;16.00;;;;;;;;4954408;28;45453;-69
2021/12/13 07:05:06;;;;;;;;;15.67;15.67;;;;;;;;4952486;28;46055;-69
2021/12/13 07:07:34;;;;;;;;;18.75;15.75;;;;;;;;4953203;28;45518;-70
2021/12/13 07:10:04;;;;;;;;;12.25;10.75;;;;;;;;4953802;28;45667;-69
2021/12/13 07:12:31;;;;;;;;;21.00;14.25;;;;;;;;4959791;28;45508;-69
2021/12/13 07:14:57;;;;;;;;;20.50;16.00;;;;;;;;4953549;28;46381;-70
2021/12/13 07:17:30;;;;;;;;;21.50;17.75;;;;;;;;4954494;28;45471;-70
2021/12/13 07:19:56;;;;;;;;;23.25;18.75;;;;;;;;4957098;28;45623;-70
2021/12/13 07:22:25;;;;;;;;;25.00;18.50;;;;;;;;4951535;28;45429;-69
2021/12/13 07:24:52;;;;;;;;;22.00;19.50;;;;;;;;4955260;28;46806;-70
2021/12/13 07:27:22;;;;;;;;;19.50;14.75;;;;;;;;4955217;28;45375;-69
2021/12/13 07:29:50;;;;;;;;;23.25;18.25;;;;;;;;4950715;28;45382;-69
2021/12/13 07:32:18;;;;;;;;;17.00;14.25;;;;;;;;4956084;28;45513;-70
2021/12/13 07:34:46;;;;;;;;;18.25;13.00;;;;;;;;4955630;28;46564;-69
2021/12/13 07:37:11;;;;;;;;;17.50;14.00;;;;;;;;4955769;28;45913;-69
2021/12/13 07:39:37;;;;;;;;;17.75;12.25;;;;;;;;4948640;28;45472;-70
2021/12/13 07:42:07;;;;;;;;;19.50;12.00;;;;;;;;4956335;28;45333;-71
2021/12/13 07:44:32;;;;;;;;;12.75;11.25;;;;;;;;4960614;28;45422;-70
2021/12/13 07:47:00;;;;;;;;;19.00;14.00;;;;;;;;4961293;28;45381;-71
2021/12/13 07:49:29;;;;;;;;;25.50;16.25;;;;;;;;4955582;28;45416;-72
2021/12/13 07:51:56;;;;;;;;;14.50;12.75;;;;;;;;4955705;28;45332;-72
2021/12/13 07:54:24;;;;;;;;;16.00;11.50;;;;;;;;4958341;28;45653;-71
2021/12/13 07:56:52;;;;;;;;;11.00;9.75;;;;;;;;4955274;28;45354;-70
2021/12/13 07:59:29;;;;;;;;;10.75;9.00;;;;;;;;4955646;28;46112;-71
2021/12/13 08:01:54;;;;;;;;;11.00;9.25;;;;;;;;4955190;28;45424;-70
2021/12/13 08:04:22;;;;;;;;;8.50;6.50;;;;;;;;4955828;28;45439;-70
2021/12/13 08:07:07;;;;;;;;;12.00;8.00;;;;;;;;4954594;28;45789;-70
2021/12/13 08:09:32;;;;;;;;;9.75;8.00;;;;;;;;4955817;28;45356;-70
2021/12/13 08:12:00;;;;;;;;;9.00;8.00;;;;;;;;4955424;28;45301;-70
2021/12/13 08:14:27;;;;;;;;;9.00;7.50;;;;;;;;4954748;28;46411;-70
2021/12/13 08:16:53;;;;;;;;;12.50;8.50;;;;;;;;4955741;28;45833;-71
2021/12/13 08:19:24;;;;;;;;;10.67;8.67;;;;;;;;4956503;28;45594;-70
2021/12/13 08:21:51;;;;;;;;;8.00;6.00;;;;;;;;4940456;28;45263;-70
2021/12/13 08:24:22;;;;;;;;;7.75;7.00;;;;;;;;4966645;28;45558;-70
2021/12/13 08:26:53;;;;;;;;;4.75;2.50;;;;;;;;4959623;28;45229;-70
2021/12/13 08:29:21;;;;;;;;;5.00;3.00;;;;;;;;4961599;28;45321;-70
2021/12/13 08:31:47;;;;;;;;;5.75;4.00;;;;;;;;4958918;28;45483;-71
2021/12/13 08:34:22;;;;;;;;;6.25;1.75;;;;;;;;4958730;28;46604;-71
2021/12/13 08:36:48;;;;;;;;;3.75;2.00;;;;;;;;4948709;28;45553;-70
2021/12/13 08:39:22;;;;;;;;;3.50;3.00;;;;;;;;4959233;28;45514;-71
2021/12/13 08:41:50;;;;;;;;;0.50;0.00;;;;;;;;4957572;28;45440;-70
2021/12/13 08:44:18;;;;;;;;;1.00;1.00;;;;;;;;4957620;28;45557;-70
2021/12/13 08:46:56;;;;;;;;;1.00;1.00;;;;;;;;4966278;28;45360;-71
2021/12/13 08:49:34;;;;;;;;;1.25;1.00;;;;;;;;4958679;28;45660;-71
2021/12/13 08:52:08;;;;;;;;;2.00;2.00;;;;;;;;4957835;28;45519;-71
2021/12/13 08:54:53;;;;;;;;;2.00;2.00;;;;;;;;4958242;28;46237;-71
2021/12/13 08:57:37;;;;;;;;;2.50;2.50;;;;;;;;4954495;28;45302;-71
2021/12/13 09:00:23;;;;;;;;;7.25;4.00;;;;;;;;4957684;28;45425;-71
2021/12/13 09:02:54;;;;;;;;;4.00;4.00;;;;;;;;4965986;28;46782;-70
2021/12/13 09:05:22;;;;;;;;;5.75;2.00;;;;;;;;4976517;28;46752;-70
2021/12/13 09:07:57;;;;;;;;;6.00;4.00;;;;;;;;4957694;28;45625;-70
2021/12/13 09:10:34;;;;;;;;;3.25;3.00;;;;;;;;4957936;28;45398;-70
2021/12/13 09:12:59;;;;;;;;;2.25;1.50;;;;;;;;4958269;28;45586;-70
2021/12/13 09:15:27;;;;;;;;;3.00;2.00;;;;;;;;4957864;28;46381;-70
2021/12/13 09:17:52;;;;;;;;;3.50;2.00;;;;;;;;4958410;28;45771;-70
2021/12/13 09:20:23;;;;;;;;;3.50;2.00;;;;;;;;4958272;28;45381;-71
2021/12/13 09:22:53;;;;;;;;;5.50;4.00;;;;;;;;4960628;28;45487;-70
2021/12/13 09:25:18;;;;;;;;;2.00;1.25;;;;;;;;4946357;28;45766;-70
2021/12/13 09:27:48;;;;;;;;;1.00;1.00;;;;;;;;4957731;28;45634;-70
2021/12/13 09:30:16;;;;;;;;;4.75;2.50;;;;;;;;4954502;28;45737;-71
2021/12/13 09:32:44;;;;;;;;;4.00;1.00;;;;;;;;4957881;28;45377;-70
2021/12/13 09:35:24;;;;;;;;;3.25;2.00;;;;;;;;4957370;28;46385;-71
2021/12/13 09:37:50;;;;;;;;;2.00;1.00;;;;;;;;4956533;28;45751;-70
2021/12/13 09:40:17;;;;;;;;;2.00;2.00;;;;;;;;4957473;28;45290;-71
2021/12/13 09:42:47;;;;;;;;;1.75;1.75;;;;;;;;4957771;28;45530;-70
2021/12/13 09:45:19;;;;;;;;;0.00;0.00;;;;;;;;4954094;28;46433;-70
2021/12/13 09:47:45;;;;;;;;;0.00;0.00;;;;;;;;4957544;28;45290;-71
2021/12/13 09:50:15;;;;;;;;;1.00;1.00;;;;;;;;4957504;28;45480;-70
2021/12/13 09:52:42;;;;;;;;;1.00;1.00;;;;;;;;4959233;28;45487;-70
2021/12/13 09:55:14;;;;;;;;;2.00;0.00;;;;;;;;4956861;28;45544;-70
2021/12/13 09:57:48;;;;;;;;;0.00;0.00;;;;;;;;4957442;28;45692;-70
2021/12/13 10:00:19;;;;;;;;;0.00;0.00;;;;;;;;4972925;28;45731;-70
2021/12/13 10:02:46;;;;;;;;;0.00;0.00;;;;;;;;4957721;28;45396;-70
2021/12/13 10:05:15;;;;;;;;;2.00;0.00;;;;;;;;4956675;28;45540;-71
2021/12/13 10:07:42;;;;;;;;;1.75;0.75;;;;;;;;4957353;28;45650;-70
2021/12/13 10:10:17;;;;;;;;;1.00;1.00;;;;;;;;4957257;28;45393;-70
2021/12/13 10:12:45;;;;;;;;;1.00;1.00;;;;;;;;4957727;28;45404;-70
2021/12/13 10:15:25;;;;;;;;;0.75;0.75;;;;;;;;4956324;28;47172;-70
2021/12/13 10:17:52;;;;;;;;;0.75;0.75;;;;;;;;4956883;28;45585;-70
2021/12/13 10:20:29;;;;;;;;;0.75;0.00;;;;;;;;4971988;28;45590;-70
2021/12/13 10:22:54;;;;;;;;;0.00;0.00;;;;;;;;4956480;28;45318;-70
2021/12/13 10:25:26;;;;;;;;;0.00;0.00;;;;;;;;4956649;28;46754;-71
2021/12/13 10:27:52;;;;;;;;;1.25;0.00;;;;;;;;4956991;28;45363;-70
2021/12/13 10:30:26;;;;;;;;;0.00;0.00;;;;;;;;4957239;28;45926;-71
2021/12/13 10:32:53;;;;;;;;;1.00;0.00;;;;;;;;4957716;28;45608;-70
2021/12/13 10:35:22;;;;;;;;;0.75;0.00;;;;;;;;4956538;28;46533;-70
2021/12/13 10:37:50;;;;;;;;;1.00;0.00;;;;;;;;4956285;28;45618;-70
2021/12/13 10:40:18;;;;;;;;;0.00;0.00;;;;;;;;4957131;28;45603;-70
2021/12/13 10:42:48;;;;;;;;;1.00;1.00;;;;;;;;4941449;28;45458;-70
2021/12/13 10:45:16;;;;;;;;;1.00;1.00;;;;;;;;4953407;28;46689;-70
2021/12/13 10:47:43;;;;;;;;;0.00;0.00;;;;;;;;4956196;28;45500;-70
2021/12/13 10:50:11;;;;;;;;;0.75;0.75;;;;;;;;4956542;28;45357;-70
2021/12/13 10:52:38;;;;;;;;;2.25;1.00;;;;;;;;4956702;28;45231;-70
2021/12/13 10:55:10;;;;;;;;;3.50;1.00;;;;;;;;4956114;28;46584;-70
2021/12/13 10:57:36;;;;;;;;;0.00;0.00;;;;;;;;4956379;28;45339;-70
2021/12/13 11:00:10;;;;;;;;;1.00;1.00;;;;;;;;4957426;28;45425;-70
2021/12/13 11:02:36;;;;;;;;;3.00;3.00;;;;;;;;4956188;28;45310;-70
2021/12/13 11:05:20;;;;;;;;;3.00;1.25;;;;;;;;4956165;28;45434;-70
2021/12/13 11:07:47;;;;;;;;;2.00;1.00;;;;;;;;4955459;28;45706;-70
2021/12/13 11:10:15;;;;;;;;;1.00;1.00;;;;;;;;4956548;28;45527;-70
2021/12/13 11:12:43;;;;;;;;;1.25;1.25;;;;;;;;4956458;28;45465;-70
2021/12/13 11:15:11;;;;;;;;;1.00;1.00;;;;;;;;4957039;28;45807;-70
2021/12/13 11:17:36;;;;;;;;;1.75;1.75;;;;;;;;4956031;28;45479;-70
2021/12/13 11:20:07;;;;;;;;;1.75;1.75;;;;;;;;4956038;28;45483;-70
2021/12/13 11:22:33;;;;;;;;;1.75;1.75;;;;;;;;4955744;28;45483;-70
2021/12/13 11:25:01;;;;;;;;;1.00;1.00;;;;;;;;4955943;28;46544;-70
2021/12/13 11:27:31;;;;;;;;;1.00;1.00;;;;;;;;4956551;28;45927;-70
2021/12/13 11:29:58;;;;;;;;;2.50;2.00;;;;;;;;4954477;28;45496;-70
2021/12/13 11:32:38;;;;;;;;;3.75;2.75;;;;;;;;4955994;28;45373;-70
2021/12/13 11:35:06;;;;;;;;;2.00;2.00;;;;;;;;4955275;28;46593;-70
2021/12/13 11:37:50;;;;;;;;;1.75;1.00;;;;;;;;4958441;28;45609;-70
2021/12/13 11:40:15;;;;;;;;;2.00;2.00;;;;;;;;4944810;28;45557;-70
2021/12/13 11:42:43;;;;;;;;;2.75;1.25;;;;;;;;4955911;28;45456;-70
2021/12/13 11:45:27;;;;;;;;;2.00;1.00;;;;;;;;4954763;28;47457;-70
2021/12/13 11:48:03;;;;;;;;;1.00;1.00;;;;;;;;4955909;28;45890;-71
2021/12/13 11:50:47;;;;;;;;;1.75;0.75;;;;;;;;4955343;28;45438;-70
2021/12/13 11:53:31;;;;;;;;;3.00;1.00;;;;;;;;4955997;28;45334;-70
2021/12/13 11:56:15;;;;;;;;;1.25;1.25;;;;;;;;4955472;28;45760;-70
2021/12/13 11:58:42;;;;;;;;;1.00;1.00;;;;;;;;4955559;28;45484;-70
2021/12/13 12:01:26;;;;;;;;;0.75;0.25;;;;;;;;4954727;28;45468;-70
2021/12/13 12:04:10;;;;;;;;;2.00;1.00;;;;;;;;4941150;28;45442;-71
2021/12/13 12:07:02;;;;;;;;;3.00;1.00;;;;;;;;4956370;28;46361;-70
2021/12/13 12:09:45;;;;;;;;;4.50;3.00;;;;;;;;4953205;28;46076;-70
2021/12/13 12:12:17;;;;;;;;;6.25;2.00;;;;;;;;4955640;28;45270;-70
2021/12/13 12:14:42;;;;;;;;;2.25;2.25;;;;;;;;4955216;28;45583;-70
2021/12/13 12:17:08;;;;;;;;;4.00;1.67;;;;;;;;4955518;28;45530;-70
2021/12/13 12:19:36;;;;;;;;;1.25;1.00;;;;;;;;4954892;28;45353;-70
2021/12/13 12:22:13;;;;;;;;;1.50;1.50;;;;;;;;4955495;28;45716;-70
2021/12/13 12:24:41;;;;;;;;;2.00;2.00;;;;;;;;4955419;28;45500;-70
2021/12/13 12:27:06;;;;;;;;;3.25;2.00;;;;;;;;4955692;28;45420;-70
2021/12/13 12:29:33;;;;;;;;;2.33;2.33;;;;;;;;4955654;28;45341;-70
2021/12/13 12:32:02;;;;;;;;;2.75;1.00;;;;;;;;4955308;28;45851;-70
2021/12/13 12:34:27;;;;;;;;;7.00;3.50;;;;;;;;4955291;28;45401;-70
2021/12/13 12:36:58;;;;;;;;;3.00;2.00;;;;;;;;4957995;28;46405;-71
2021/12/13 12:39:23;;;;;;;;;3.00;2.00;;;;;;;;4955591;28;45338;-70
2021/12/13 12:42:07;;;;;;;;;3.75;2.75;;;;;;;;4955840;28;45432;-70
2021/12/13 12:44:41;;;;;;;;;4.00;4.00;;;;;;;;4954887;28;45506;-70
2021/12/13 12:47:06;;;;;;;;;3.00;3.00;;;;;;;;4954717;28;47252;-71
2021/12/13 12:49:32;;;;;;;;;7.33;3.00;;;;;;;;4955057;28;45329;-70
2021/12/13 12:52:02;;;;;;;;;3.00;3.00;;;;;;;;4955120;28;45660;-70
2021/12/13 12:54:27;;;;;;;;;3.75;2.75;;;;;;;;4955100;28;45332;-70
2021/12/13 12:56:55;;;;;;;;;6.00;4.00;;;;;;;;4955337;28;46760;-70
2021/12/13 12:59:22;;;;;;;;;2.75;2.75;;;;;;;;4954928;28;45504;-70
2021/12/13 13:02:08;;;;;;;;;5.00;3.50;;;;;;;;4954034;28;45330;-70
2021/12/13 13:04:38;;;;;;;;;3.50;3.50;;;;;;;;4955130;28;45545;-70
2021/12/13 13:07:03;;;;;;;;;2.25;2.25;;;;;;;;4956280;28;46523;-70
2021/12/13 13:09:47;;;;;;;;;3.00;2.00;;;;;;;;4954848;28;45725;-70
2021/12/13 13:12:15;;;;;;;;;2.50;2.00;;;;;;;;4957366;28;45537;-70
2021/12/13 13:14:45;;;;;;;;;2.75;2.75;;;;;;;;4958007;28;45600;-70
2021/12/13 13:17:10;;;;;;;;;6.50;4.00;;;;;;;;4957515;28;45537;-70
2021/12/13 13:19:37;;;;;;;;;2.00;2.00;;;;;;;;4958297;28;45393;-70
2021/12/13 13:22:08;;;;;;;;;3.50;2.75;;;;;;;;4957968;28;45527;-71
2021/12/13 13:24:38;;;;;;;;;3.75;2.50;;;;;;;;4972872;28;45484;-70
2021/12/13 13:27:03;;;;;;;;;2.00;2.00;;;;;;;;4958147;28;46647;-70
2021/12/13 13:29:29;;;;;;;;;5.00;3.00;;;;;;;;4958005;28;45367;-70
2021/12/13 13:31:57;;;;;;;;;3.00;2.00;;;;;;;;4957427;28;46847;-70
2021/12/13 13:34:22;;;;;;;;;3.00;3.00;;;;;;;;4960247;28;45444;-70
2021/12/13 13:36:50;;;;;;;;;3.00;3.00;;;;;;;;4957873;28;45651;-70
2021/12/13 13:39:18;;;;;;;;;3.00;3.00;;;;;;;;4958356;28;45457;-70
2021/12/13 13:41:46;;;;;;;;;5.50;4.00;;;;;;;;4957840;28;45494;-70
2021/12/13 13:44:14;;;;;;;;;3.00;2.25;;;;;;;;4957663;28;45448;-70
2021/12/13 13:46:40;;;;;;;;;3.75;2.00;;;;;;;;4957021;28;45583;-70
2021/12/13 13:49:05;;;;;;;;;3.00;3.00;;;;;;;;4957566;28;45388;-70
2021/12/13 13:51:32;;;;;;;;;2.00;2.00;;;;;;;;4957548;28;45304;-70
2021/12/13 13:53:57;;;;;;;;;3.00;3.00;;;;;;;;4956411;28;45187;-70
2021/12/13 13:56:25;;;;;;;;;3.25;3.25;;;;;;;;4957133;28;46349;-70
2021/12/13 13:58:55;;;;;;;;;3.00;3.00;;;;;;;;4956714;28;46019;-71
2021/12/13 14:01:21;;;;;;;;;3.00;2.50;;;;;;;;4954191;28;45461;-71
2021/12/13 14:03:48;;;;;;;;;4.67;4.00;;;;;;;;4958108;28;45432;-71
2021/12/13 14:06:16;;;;;;;;;3.75;3.00;;;;;;;;4965589;28;47696;-71
2021/12/13 14:08:42;;;;;;;;;8.00;3.75;;;;;;;;4957759;28;45512;-71
2021/12/13 14:11:10;;;;;;;;;5.75;3.00;;;;;;;;4955769;28;45488;-70
2021/12/13 14:13:36;;;;;;;;;3.75;3.25;;;;;;;;4956988;28;45463;-71
2021/12/13 14:16:09;;;;;;;;;3.75;3.75;;;;;;;;4952510;28;45651;-70
2021/12/13 14:18:34;;;;;;;;;3.75;2.25;;;;;;;;4969579;28;45999;-70
2021/12/13 14:21:02;;;;;;;;;4.00;3.00;;;;;;;;4950921;28;45447;-70
2021/12/13 14:23:30;;;;;;;;;3.00;3.00;;;;;;;;4950545;28;45538;-70
2021/12/13 14:26:01;;;;;;;;;6.25;3.25;;;;;;;;4955466;28;46477;-70
2021/12/13 14:28:27;;;;;;;;;6.50;4.00;;;;;;;;4949266;28;45477;-70
2021/12/13 14:30:52;;;;;;;;;9.00;7.33;;;;;;;;4942487;28;48076;-70
2021/12/13 14:33:23;;;;;;;;;7.25;5.75;;;;;;;;4958500;28;45509;-70
2021/12/13 14:36:07;;;;;;;;;7.50;6.00;;;;;;;;4954377;28;46326;-70
2021/12/13 14:38:32;;;;;;;;;8.25;5.00;;;;;;;;4951753;28;46162;-71
2021/12/13 14:41:01;;;;;;;;;6.00;5.75;;;;;;;;4949134;28;45539;-70
2021/12/13 14:43:28;;;;;;;;;10.50;9.00;;;;;;;;4949077;28;45401;-70
2021/12/13 14:45:54;;;;;;;;;7.00;6.50;;;;;;;;4963391;28;45664;-70
2021/12/13 14:48:21;;;;;;;;;7.00;7.00;;;;;;;;4951017;28;45734;-70
2021/12/13 14:50:48;;;;;;;;;6.50;4.75;;;;;;;;4950660;28;45345;-71
2021/12/13 14:53:19;;;;;;;;;8.00;8.00;;;;;;;;4948894;28;45529;-70